Time;durP1;ratioP1;P1;durP2;ratioP2;P2;SDS_P1;SDS_P2;PMS_P1;PMS_P2;Temp;Humidity;BMP_temperature;BMP_pressure;BME280_temperature;BME280_humidity;BME280_pressure;Samples;Min_cycle;Max_cycle;Signal;HPM_P1;HPM_P2
2022/10/21 00:01:20;;;;;;;;;;;;;;;;;;5094320;28;2080;-42
2022/10/21 00:03:49;;;;;;;;;;;;;;;;;;5094091;28;1808;-48
2022/10/21 00:06:16;;;;;;;;;;;;;;;;;;5094121;28;1967;-46
2022/10/21 00:08:43;;;;;;;;;;;;;;;;;;5094120;28;1960;-49
2022/10/21 00:11:11;;;;;;;;;;;;;;;;;;5093989;28;1842;-45
2022/10/21 00:13:38;;;;;;;;;;;;;;;;;;5093935;28;2001;-44
2022/10/21 00:16:09;;;;;;;;;;;;;;;;;;5093795;28;1692;-45
2022/10/21 00:18:37;;;;;;;;;;;;;;;;;;5093799;28;1957;-43
2022/10/21 00:21:08;;;;;;;;;;;;;;;;;;5092459;28;1904;-46
2022/10/21 00:23:35;;;;;;;;;;;;;;;;;;5093515;28;1590;-47
2022/10/21 00:26:03;;;;;;;;;;;;;;;;;;5092762;28;1911;-47
2022/10/21 00:28:31;;;;;;;;;;;;;;;;;;5093855;28;1972;-44
2022/10/21 00:30:58;;;;;;;;;;;;;;;;;;5093807;28;2135;-42
2022/10/21 00:33:25;;;;;;;;;;;;;;;;;;5101250;28;1939;-45
2022/10/21 00:35:53;;;;;;;;;;;;;;;;;;5113943;28;2147;-51
2022/10/21 00:38:21;;;;;;;;;;;;;;;;;;5113996;28;1807;-47
2022/10/21 00:40:53;;;;;;;;;;;;;;;;;;5113844;28;2139;-44
2022/10/21 00:43:20;;;;;;;;;;;;;;;;;;5112496;28;1677;-47
2022/10/21 00:45:49;;;;;;;;;;;;;;;;;;5113568;28;1903;-45
2022/10/21 00:48:24;;;;;;;;;;;;;;;;;;5113734;28;2158;-51
2022/10/21 00:50:56;;;;;;;;;;;;;;;;;;5113614;28;1734;-41
2022/10/21 00:53:24;;;;;;;;;;;;;;;;;;5113578;28;1811;-48
2022/10/21 00:55:54;;;;;;;;;;;;;;;;;;5113613;28;1900;-46
2022/10/21 00:58:23;;;;;;;;;;;;;;;;;;5113647;28;1824;-47
2022/10/21 01:00:50;;;;;;;;;;;;;;;;;;5113512;28;1932;-52
2022/10/21 01:03:17;;;;;;;;;;;;;;;;;;5113337;28;1389;-39
2022/10/21 01:05:45;;;;;;;;;;;;;;;;;;5113259;28;1910;-49
2022/10/21 01:08:12;;;;;;;;;;;;;;;;;;5113261;28;1826;-47
2022/10/21 01:10:40;;;;;;;;;;;;;;;;;;5112195;28;1817;-49
2022/10/21 01:13:25;;;;;;;;;;;;;;;;;;5113323;28;1265;-43
2022/10/21 01:16:09;;;;;;;;;;;;;;;;;;5113476;28;2250;-45
2022/10/21 01:18:56;;;;;;;;;;;;;;;;;;5111837;28;2434;-41
2022/10/21 01:21:59;;;;;;;;;;;;;;;;;;5113145;28;1775;-48
2022/10/21 01:24:46;;;;;;;;;;;;;;;;;;5050180;28;1804;-45
2022/10/21 01:27:22;;;;;;;;;;;;;;;;;;5109317;28;1979;-44
2022/10/21 01:30:09;;;;;;;;;;;;;;;;;;5113222;28;2202;-47
2022/10/21 01:32:55;;;;;;;;;;;;;;;;;;5112169;28;1937;-47
2022/10/21 01:35:25;;;;;;;;;;;;;;;;;;5092669;28;2100;-42
2022/10/21 01:38:04;;;;;;;;;;;;;;;;;;5092152;28;2031;-46
2022/10/21 01:40:40;;;;;;;;;;;;;;;;;;5092249;28;1952;-45
2022/10/21 01:43:20;;;;;;;;;;;;;;;;;;5092428;28;2151;-49
2022/10/21 01:45:50;;;;;;;;;;;;;;;;;;5092211;28;2067;-49
2022/10/21 01:48:22;;;;;;;;;;;;;;;;;;5092410;28;1952;-45
2022/10/21 01:50:52;;;;;;;;;;;;;;;;;;5092182;28;2137;-46
2022/10/21 01:53:20;;;;;;;;;;;;;;;;;;5090877;28;1632;-48
2022/10/21 01:55:48;;;;;;;;;;;;;;;;;;5090777;28;1797;-50
2022/10/21 01:58:17;;;;;;;;;;;;;;;;;;5092088;28;1804;-48
2022/10/21 02:00:46;;;;;;;;;;;;;;;;;;5092044;28;1809;-52
2022/10/21 02:03:17;;;;;;;;;;;;;;;;;;5091791;28;1872;-49
2022/10/21 02:05:44;;;;;;;;;;;;;;;;;;5091761;28;1910;-49
2022/10/21 02:08:11;;;;;;;;;;;;;;;;;;5091672;28;1825;-45
2022/10/21 02:10:44;;;;;;;;;;;;;;;;;;5092112;28;1859;-47
2022/10/21 02:13:12;;;;;;;;;;;;;;;;;;5091670;28;2075;-51
2022/10/21 02:15:41;;;;;;;;;;;;;;;;;;5091766;28;1719;-49
2022/10/21 02:18:17;;;;;;;;;;;;;;;;;;5091534;28;1828;-42
2022/10/21 02:20:44;;;;;;;;;;;;;;;;;;5091848;28;1878;-45
2022/10/21 02:23:14;;;;;;;;;;;;;;;;;;5091360;28;1869;-41
2022/10/21 02:25:43;;;;;;;;;;;;;;;;;;5091672;28;1905;-43
2022/10/21 02:28:11;;;;;;;;;;;;;;;;;;5091712;28;1538;-41
2022/10/21 02:30:44;;;;;;;;;;;;;;;;;;5091403;28;2072;-47
2022/10/21 02:33:19;;;;;;;;;;;;;;;;;;5091369;28;1734;-42
2022/10/21 02:35:49;;;;;;;;;;;;;;;;;;5091329;28;1787;-49
2022/10/21 02:38:23;;;;;;;;;;;;;;;;;;5091407;28;1990;-43
2022/10/21 02:40:53;;;;;;;;;;;;;;;;;;5091271;28;2214;-50
2022/10/21 02:43:35;;;;;;;;;;;;;;;;;;5091387;28;1803;-52
2022/10/21 02:46:07;;;;;;;;;;;;;;;;;;5091099;28;2000;-46
2022/10/21 02:48:35;;;;;;;;;;;;;;;;;;5091473;28;1745;-45
2022/10/21 02:51:03;;;;;;;;;;;;;;;;;;5091304;28;1611;-45
2022/10/21 02:53:31;;;;;;;;;;;;;;;;;;5091085;28;1995;-46
2022/10/21 02:56:00;;;;;;;;;;;;;;;;;;5091195;28;1911;-41
2022/10/21 02:58:27;;;;;;;;;;;;;;;;;;5091216;28;1811;-49
2022/10/21 03:00:54;;;;;;;;;;;;;;;;;;5091238;28;1945;-53
2022/10/21 03:03:22;;;;;;;;;;;;;;;;;;5091103;28;2011;-50
2022/10/21 03:05:49;;;;;;;;;;;;;;;;;;5091116;28;1726;-51
2022/10/21 03:08:16;;;;;;;;;;;;;;;;;;5090977;28;1910;-50
2022/10/21 03:10:43;;;;;;;;;;;;;;;;;;5091253;28;1576;-45
2022/10/21 03:13:13;;;;;;;;;;;;;;;;;;5091308;28;1851;-41
2022/10/21 03:15:40;;;;;;;;;;;;;;;;;;5091274;28;1638;-46
2022/10/21 03:18:07;;;;;;;;;;;;;;;;;;5091058;28;1888;-48
2022/10/21 03:20:34;;;;;;;;;;;;;;;;;;5090765;28;1909;-48
2022/10/21 03:23:01;;;;;;;;;;;;;;;;;;5098557;28;2220;-47
2022/10/21 03:25:28;;;;;;;;;;;;;;;;;;5107738;28;2029;-43
2022/10/21 03:28:00;;;;;;;;;;;;;;;;;;5090879;28;2111;-45
2022/10/21 03:30:27;;;;;;;;;;;;;;;;;;5090803;28;1922;-47
2022/10/21 03:32:55;;;;;;;;;;;;;;;;;;5094084;28;2121;-48
2022/10/21 03:35:22;;;;;;;;;;;;;;;;;;5114609;28;2093;-48
2022/10/21 03:37:49;;;;;;;;;;;;;;;;;;5109160;27;2020;-48
2022/10/21 03:40:16;;;;;;;;;;;;;;;;;;5094741;28;1726;-48
2022/10/21 03:42:43;;;;;;;;;;;;;;;;;;5093534;28;2514;-43
2022/10/21 03:45:10;;;;;;;;;;;;;;;;;;5094560;28;1990;-46
2022/10/21 03:47:37;;;;;;;;;;;;;;;;;;5094513;28;1969;-49
2022/10/21 03:50:06;;;;;;;;;;;;;;;;;;5094561;28;2138;-50
2022/10/21 03:52:35;;;;;;;;;;;;;;;;;;5094322;28;2315;-47
2022/10/21 03:55:03;;;;;;;;;;;;;;;;;;5073845;27;9916;-46
2022/10/21 03:57:30;;;;;;;;;;;;;;;;;;5095720;27;1700;-51
2022/10/21 03:59:57;;;;;;;;;;;;;;;;;;5094313;28;1647;-50
2022/10/21 04:02:24;;;;;;;;;;;;;;;;;;5094189;28;1978;-50
2022/10/21 04:04:51;;;;;;;;;;;;;;;;;;5092808;28;2409;-52
2022/10/21 04:07:18;;;;;;;;;;;;;;;;;;5094082;28;1988;-42
2022/10/21 04:09:45;;;;;;;;;;;;;;;;;;5094389;28;1626;-50
2022/10/21 04:12:12;;;;;;;;;;;;;;;;;;5094844;28;1766;-43
2022/10/21 04:14:39;;;;;;;;;;;;;;;;;;5093954;28;1893;-48
2022/10/21 04:17:06;;;;;;;;;;;;;;;;;;5093918;28;1697;-41
2022/10/21 04:19:33;;;;;;;;;;;;;;;;;;5094149;28;1838;-46
2022/10/21 04:22:00;;;;;;;;;;;;;;;;;;5093823;28;1624;-54
2022/10/21 04:24:27;;;;;;;;;;;;;;;;;;5094212;28;1782;-46
2022/10/21 04:26:54;;;;;;;;;;;;;;;;;;5092408;28;1963;-50
2022/10/21 04:29:21;;;;;;;;;;;;;;;;;;5092188;28;2299;-47
2022/10/21 04:31:48;;;;;;;;;;;;;;;;;;5093646;28;1713;-43
2022/10/21 04:34:16;;;;;;;;;;;;;;;;;;5093034;28;1967;-49
2022/10/21 04:36:43;;;;;;;;;;;;;;;;;;5093817;28;1989;-48
2022/10/21 04:39:10;;;;;;;;;;;;;;;;;;5093694;28;1942;-51
2022/10/21 04:41:36;;;;;;;;;;;;;;;;;;5093613;28;1901;-50
2022/10/21 04:44:05;;;;;;;;;;;;;;;;;;5093442;28;1688;-44
2022/10/21 04:46:32;;;;;;;;;;;;;;;;;;5093286;28;2126;-48
2022/10/21 04:48:59;;;;;;;;;;;;;;;;;;5093509;28;1590;-51
2022/10/21 04:51:26;;;;;;;;;;;;;;;;;;5093419;28;1777;-48
2022/10/21 04:53:53;;;;;;;;;;;;;;;;;;5093320;28;2205;-51
2022/10/21 04:56:20;;;;;;;;;;;;;;;;;;5093209;28;1976;-48
2022/10/21 04:58:47;;;;;;;;;;;;;;;;;;5093286;28;1694;-48
2022/10/21 05:01:15;;;;;;;;;;;;;;;;;;5093238;28;2389;-50
2022/10/21 05:03:42;;;;;;;;;;;;;;;;;;5093056;28;1746;-50
2022/10/21 05:06:09;;;;;;;;;;;;;;;;;;5092846;28;1860;-47
2022/10/21 05:08:36;;;;;;;;;;;;;;;;;;5092954;28;2156;-42
2022/10/21 05:11:03;;;;;;;;;;;;;;;;;;5092739;28;2140;-49
2022/10/21 05:13:30;;;;;;;;;;;;;;;;;;5092916;28;1576;-49
2022/10/21 05:15:58;;;;;;;;;;;;;;;;;;5093020;28;1589;-45
2022/10/21 05:18:25;;;;;;;;;;;;;;;;;;5091504;28;1855;-51
2022/10/21 05:20:53;;;;;;;;;;;;;;;;;;5092916;28;1840;-43
2022/10/21 05:23:20;;;;;;;;;;;;;;;;;;5093019;28;1495;-49
2022/10/21 05:25:47;;;;;;;;;;;;;;;;;;5092772;28;1923;-47
2022/10/21 05:28:14;;;;;;;;;;;;;;;;;;5092516;28;1966;-42
2022/10/21 05:30:41;;;;;;;;;;;;;;;;;;5092533;28;1855;-51
2022/10/21 05:33:09;;;;;;;;;;;;;;;;;;5097810;28;1931;-49
2022/10/21 05:35:36;;;;;;;;;;;;;;;;;;5113009;28;1794;-53
2022/10/21 05:38:03;;;;;;;;;;;;;;;;;;5111382;28;2012;-45
2022/10/21 05:40:30;;;;;;;;;;;;;;;;;;5112868;28;1993;-48
2022/10/21 05:42:57;;;;;;;;;;;;;;;;;;5112658;28;2135;-44
2022/10/21 05:45:25;;;;;;;;;;;;;;;;;;5112709;28;2023;-50
2022/10/21 05:47:52;;;;;;;;;;;;;;;;;;5112872;28;1910;-50
2022/10/21 05:50:20;;;;;;;;;;;;;;;;;;5112724;28;1887;-50
2022/10/21 05:52:47;;;;;;;;;;;;;;;;;;5112514;28;1807;-48
2022/10/21 05:55:14;;;;;;;;;;;;;;;;;;5112425;28;1939;-45
2022/10/21 05:57:41;;;;;;;;;;;;;;;;;;5112031;28;1520;-46
2022/10/21 06:00:08;;;;;;;;;;;;;;;;;;5112555;28;1834;-50
2022/10/21 06:02:35;;;;;;;;;;;;;;;;;;5112012;28;2134;-44
2022/10/21 06:05:03;;;;;;;;;;;;;;;;;;5112213;28;2090;-43
2022/10/21 06:07:30;;;;;;;;;;;;;;;;;;5111948;28;2098;-50
2022/10/21 06:09:57;;;;;;;;;;;;;;;;;;5112289;28;1981;-41
2022/10/21 06:12:24;;;;;;;;;;;;;;;;;;5112406;27;1715;-48
2022/10/21 06:14:51;;;;;;;;;;;;;;;;;;5112393;28;1944;-45
2022/10/21 06:17:18;;;;;;;;;;;;;;;;;;5111828;28;1886;-47
2022/10/21 06:19:45;;;;;;;;;;;;;;;;;;5111978;28;1786;-42
2022/10/21 06:22:15;;;;;;;;;;;;;;;;;;5112125;28;1845;-48
2022/10/21 06:24:42;;;;;;;;;;;;;;;;;;5112196;28;1591;-51
2022/10/21 06:27:09;;;;;;;;;;;;;;;;;;5111832;28;2198;-44
2022/10/21 06:29:37;;;;;;;;;;;;;;;;;;5111901;28;2135;-49
2022/10/21 06:32:04;;;;;;;;;;;;;;;;;;5111741;28;1839;-42
2022/10/21 06:34:31;;;;;;;;;;;;;;;;;;5094726;28;2118;-51
2022/10/21 06:36:58;;;;;;;;;;;;;;;;;;5091385;28;1784;-41
2022/10/21 06:39:25;;;;;;;;;;;;;;;;;;5091607;28;2190;-49
2022/10/21 06:41:52;;;;;;;;;;;;;;;;;;5091775;28;1686;-45
2022/10/21 06:44:38;;;;;;;;;;;;;;;;;;5091441;28;2230;-47
2022/10/21 06:47:05;;;;;;;;;;;;;;;;;;5091443;28;2065;-45
2022/10/21 06:49:32;;;;;;;;;;;;;;;;;;5091630;28;2000;-41
2022/10/21 06:51:58;;;;;;;;;;;;;;;;;;5091402;28;1784;-50
2022/10/21 06:54:25;;;;;;;;;;;;;;;;;;5091474;28;1343;-52
2022/10/21 06:56:53;;;;;;;;;;;;;;;;;;5091451;28;1882;-52
2022/10/21 06:59:20;;;;;;;;;;;;;;;;;;5091240;28;1670;-47
2022/10/21 07:01:49;;;;;;;;;;;;;;;;;;5091193;28;1926;-45
2022/10/21 07:04:31;;;;;;;;;;;;;;;;;;5091183;28;1809;-52
2022/10/21 07:06:58;;;;;;;;;;;;;;;;;;5091410;28;1987;-41
2022/10/21 07:09:29;;;;;;;;;;;;;;;;;;5093401;28;1966;-43
2022/10/21 07:11:56;;;;;;;;;;;;;;;;;;5095370;28;2001;-47
2022/10/21 07:14:25;;;;;;;;;;;;;;;;;;5095406;28;1812;-41
2022/10/21 07:16:52;;;;;;;;;;;;;;;;;;5095348;28;1727;-41
2022/10/21 07:19:19;;;;;;;;;;;;;;;;;;5095186;28;1536;-42
2022/10/21 07:21:46;;;;;;;;;;;;;;;;;;5095220;28;2091;-50
2022/10/21 07:24:13;;;;;;;;;;;;;;;;;;5095212;28;2125;-41
2022/10/21 07:26:44;;;;;;;;;;;;;;;;;;5094960;28;2035;-41
2022/10/21 07:29:11;;;;;;;;;;;;;;;;;;5095172;28;2058;-42
2022/10/21 07:31:38;;;;;;;;;;;;;;;;;;5093721;28;1390;-46
2022/10/21 07:34:07;;;;;;;;;;;;;;;;;;5094871;28;2176;-44
2022/10/21 07:36:35;;;;;;;;;;;;;;;;;;5094842;28;1759;-50
2022/10/21 07:39:07;;;;;;;;;;;;;;;;;;5094782;28;2365;-41
2022/10/21 07:41:39;;;;;;;;;;;;;;;;;;5095031;28;1797;-47
2022/10/21 07:44:07;;;;;;;;;;;;;;;;;;5094875;28;1672;-50
2022/10/21 07:46:35;;;;;;;;;;;;;;;;;;5094667;28;1980;-48
2022/10/21 07:49:02;;;;;;;;;;;;;;;;;;5094566;28;2018;-49
2022/10/21 07:51:29;;;;;;;;;;;;;;;;;;5094579;28;2047;-45
2022/10/21 07:53:58;;;;;;;;;;;;;;;;;;5095013;28;2042;-48
2022/10/21 07:56:26;;;;;;;;;;;;;;;;;;5094409;28;2097;-43
2022/10/21 07:58:54;;;;;;;;;;;;;;;;;;5094488;28;1755;-51
2022/10/21 08:01:21;;;;;;;;;;;;;;;;;;5094375;28;2009;-49
2022/10/21 08:03:48;;;;;;;;;;;;;;;;;;5093691;28;1874;-48
2022/10/21 08:06:16;;;;;;;;;;;;;;;;;;5092984;28;2322;-42
2022/10/21 08:08:43;;;;;;;;;;;;;;;;;;5092845;28;2044;-49
2022/10/21 08:11:10;;;;;;;;;;;;;;;;;;5093142;28;1717;-48
2022/10/21 08:13:40;;;;;;;;;;;;;;;;;;5093118;28;1370;-52
2022/10/21 08:16:07;;;;;;;;;;;;;;;;;;5092977;28;2048;-43
2022/10/21 08:18:34;;;;;;;;;;;;;;;;;;5092890;28;1781;-52
2022/10/21 08:21:02;;;;;;;;;;;;;;;;;;5092623;28;1975;-50
2022/10/21 08:23:29;;;;;;;;;;;;;;;;;;5092949;28;1864;-48
2022/10/21 08:25:57;;;;;;;;;;;;;;;;;;5092886;28;1815;-44
2022/10/21 08:28:25;;;;;;;;;;;;;;;;;;5092467;28;1906;-49
2022/10/21 08:30:52;;;;;;;;;;;;;;;;;;5092651;28;1877;-49
2022/10/21 08:33:19;;;;;;;;;;;;;;;;;;5099386;28;2002;-46
2022/10/21 08:35:46;;;;;;;;;;;;;;;;;;5113019;28;2010;-44
2022/10/21 08:38:13;;;;;;;;;;;;;;;;;;5113102;28;1735;-51
2022/10/21 08:40:41;;;;;;;;;;;;;;;;;;5112851;28;2261;-41
2022/10/21 08:43:28;;;;;;;;;;;;;;;;;;5112944;28;2100;-49
2022/10/21 08:46:15;;;;;;;;;;;;;;;;;;5112742;28;1703;-43
2022/10/21 08:48:46;;;;;;;;;;;;;;;;;;5112666;28;2101;-42
2022/10/21 08:51:27;;;;;;;;;;;;;;;;;;5112949;28;2096;-49
2022/10/21 08:53:57;;;;;;;;;;;;;;;;;;5112687;28;1742;-50
2022/10/21 08:56:24;;;;;;;;;;;;;;;;;;5111435;28;1994;-45
2022/10/21 08:58:51;;;;;;;;;;;;;;;;;;5112891;28;2228;-51
2022/10/21 09:01:23;;;;;;;;;;;;;;;;;;5112706;28;1741;-44
2022/10/21 09:04:01;;;;;;;;;;;;;;;;;;5113005;28;2244;-42
2022/10/21 09:06:34;;;;;;;;;;;;;;;;;;5113309;28;2134;-49
2022/10/21 09:09:19;;;;;;;;;;;;;;;;;;5113492;28;2000;-47
2022/10/21 09:12:06;;;;;;;;;;;;;;;;;;5113534;28;1967;-44
2022/10/21 09:14:48;;;;;;;;;;;;;;;;;;5113684;28;1774;-41
2022/10/21 09:17:31;;;;;;;;;;;;;;;;;;5113408;27;1856;-49
2022/10/21 09:20:17;;;;;;;;;;;;;;;;;;5113413;28;1840;-51
2022/10/21 09:22:47;;;;;;;;;;;;;;;;;;5111999;28;1630;-49
2022/10/21 09:25:19;;;;;;;;;;;;;;;;;;5113240;28;1947;-52
2022/10/21 09:27:47;;;;;;;;;;;;;;;;;;5113017;28;1970;-46
2022/10/21 09:30:22;;;;;;;;;;;;;;;;;;5113136;27;2114;-43
2022/10/21 09:32:54;;;;;;;;;;;;;;;;;;5109559;28;1882;-46
2022/10/21 09:35:21;;;;;;;;;;;;;;;;;;5092709;28;1764;-49
2022/10/21 09:37:57;;;;;;;;;;;;;;;;;;5092183;28;2024;-50
2022/10/21 09:40:27;;;;;;;;;;;;;;;;;;5092549;28;2249;-48
2022/10/21 09:42:55;;;;;;;;;;;;;;;;;;5092339;28;1852;-48
2022/10/21 09:45:29;;;;;;;;;;;;;;;;;;5092882;28;2149;-50
2022/10/21 09:48:04;;;;;;;;;;;;;;;;;;5092269;28;1906;-47
2022/10/21 09:50:32;;;;;;;;;;;;;;;;;;5092397;28;2002;-49
2022/10/21 09:53:20;;;;;;;;;;;;;;;;;;5092425;28;2096;-53
2022/10/21 09:55:51;;;;;;;;;;;;;;;;;;5092258;28;1408;-49
2022/10/21 09:58:29;;;;;;;;;;;;;;;;;;5092229;28;1697;-51
2022/10/21 10:00:57;;;;;;;;;;;;;;;;;;5092261;28;2002;-49
2022/10/21 10:03:32;;;;;;;;;;;;;;;;;;5091971;28;1573;-51
2022/10/21 10:05:59;;;;;;;;;;;;;;;;;;5092081;28;1681;-49
2022/10/21 10:08:27;;;;;;;;;;;;;;;;;;5091911;28;1904;-50
2022/10/21 10:11:20;;;;;;;;;;;;;;;;;;5091956;28;2131;-42
2022/10/21 10:13:51;;;;;;;;;;;;;;;;;;5091108;28;1729;-46
2022/10/21 10:16:21;;;;;;;;;;;;;;;;;;5091980;28;1879;-51
2022/10/21 10:18:49;;;;;;;;;;;;;;;;;;5091753;28;1748;-43
2022/10/21 10:21:17;;;;;;;;;;;;;;;;;;5090608;28;1797;-42
2022/10/21 10:23:51;;;;;;;;;;;;;;;;;;5091624;28;2000;-51
2022/10/21 10:26:25;;;;;;;;;;;;;;;;;;5091751;28;1790;-44
2022/10/21 10:28:54;;;;;;;;;;;;;;;;;;5091560;28;2007;-45
2022/10/21 10:31:25;;;;;;;;;;;;;;;;;;5091578;28;1805;-46
2022/10/21 10:33:54;;;;;;;;;;;;;;;;;;5091402;28;1700;-43
2022/10/21 10:36:26;;;;;;;;;;;;;;;;;;5091645;28;1968;-38
2022/10/21 10:38:54;;;;;;;;;;;;;;;;;;5091682;28;1375;-45
2022/10/21 10:41:28;;;;;;;;;;;;;;;;;;5091383;28;1896;-46
2022/10/21 10:43:56;;;;;;;;;;;;;;;;;;5091373;28;1856;-46
2022/10/21 10:46:31;;;;;;;;;;;;;;;;;;5091785;28;1795;-50
2022/10/21 10:49:04;;;;;;;;;;;;;;;;;;5091397;28;1957;-42
2022/10/21 10:51:32;;;;;;;;;;;;;;;;;;5091443;28;1967;-44
2022/10/21 10:54:01;;;;;;;;;;;;;;;;;;5091260;28;1484;-42
2022/10/21 10:56:30;;;;;;;;;;;;;;;;;;5089953;28;2434;-52
2022/10/21 10:59:23;;;;;;;;;;;;;;;;;;5091325;28;1897;-51
2022/10/21 11:01:50;;;;;;;;;;;;;;;;;;5090369;28;1849;-51
2022/10/21 11:04:24;;;;;;;;;;;;;;;;;;5091192;28;1645;-44
2022/10/21 11:07:01;;;;;;;;;;;;;;;;;;5091724;28;1870;-41
2022/10/21 11:09:30;;;;;;;;;;;;;;;;;;5091013;28;1902;-42
2022/10/21 11:11:57;;;;;;;;;;;;;;;;;;5091154;28;1789;-45
2022/10/21 11:14:24;;;;;;;;;;;;;;;;;;5091247;28;1829;-51
2022/10/21 11:16:54;;;;;;;;;;;;;;;;;;5091232;28;1345;-50
2022/10/21 11:19:29;;;;;;;;;;;;;;;;;;5090975;28;1818;-48
2022/10/21 11:22:02;;;;;;;;;;;;;;;;;;5091098;28;2172;-48
2022/10/21 11:24:50;;;;;;;;;;;;;;;;;;5090990;28;1527;-42
2022/10/21 11:27:38;;;;;;;;;;;;;;;;;;5090971;28;1860;-51
2022/10/21 11:30:08;;;;;;;;;;;;;;;;;;5091022;28;1969;-48
2022/10/21 11:32:39;;;;;;;;;;;;;;;;;;5090896;28;1709;-48
2022/10/21 11:35:20;;;;;;;;;;;;;;;;;;5091036;28;2012;-44
2022/10/21 11:38:06;;;;;;;;;;;;;;;;;;5090968;28;2175;-48
2022/10/21 11:40:40;;;;;;;;;;;;;;;;;;5090927;28;2220;-48
2022/10/21 11:43:27;;;;;;;;;;;;;;;;;;5091132;28;2085;-44
2022/10/21 11:46:01;;;;;;;;;;;;;;;;;;5091123;28;1798;-44
2022/10/21 11:48:48;;;;;;;;;;;;;;;;;;5090888;28;1906;-51
2022/10/21 11:51:21;;;;;;;;;;;;;;;;;;5086495;28;1703;-42
2022/10/21 11:54:00;;;;;;;;;;;;;;;;;;5090896;28;2121;-50
2022/10/21 11:56:30;;;;;;;;;;;;;;;;;;5094146;28;1886;-41
2022/10/21 11:59:00;;;;;;;;;;;;;;;;;;5094480;28;2167;-42
2022/10/21 12:01:27;;;;;;;;;;;;;;;;;;5094421;28;1942;-41
2022/10/21 12:03:54;;;;;;;;;;;;;;;;;;5094286;28;1793;-51
2022/10/21 12:06:47;;;;;;;;;;;;;;;;;;5094483;28;1533;-43
2022/10/21 12:09:16;;;;;;;;;;;;;;;;;;5093397;28;1910;-50
2022/10/21 12:11:49;;;;;;;;;;;;;;;;;;5094401;28;2111;-49
2022/10/21 12:14:24;;;;;;;;;;;;;;;;;;5094426;28;2080;-43
2022/10/21 12:16:57;;;;;;;;;;;;;;;;;;5094167;28;1449;-53
2022/10/21 12:19:24;;;;;;;;;;;;;;;;;;5093672;28;1955;-46
2022/10/21 12:21:52;;;;;;;;;;;;;;;;;;5094074;28;1590;-41
2022/10/21 12:24:28;;;;;;;;;;;;;;;;;;5092523;28;1582;-41
2022/10/21 12:27:01;;;;;;;;;;;;;;;;;;5093813;28;2217;-41
2022/10/21 12:29:41;;;;;;;;;;;;;;;;;;5093990;28;1976;-40
2022/10/21 12:32:27;;;;;;;;;;;;;;;;;;5093652;28;1331;-40
2022/10/21 12:34:54;;;;;;;;;;;;;;;;;;5093564;28;1699;-51
2022/10/21 12:37:40;;;;;;;;;;;;;;;;;;5099616;28;1980;-40
2022/10/21 12:40:09;;;;;;;;;;;;;;;;;;5114081;28;2105;-43
2022/10/21 12:42:36;;;;;;;;;;;;;;;;;;5113910;28;1973;-46
2022/10/21 12:45:05;;;;;;;;;;;;;;;;;;5112877;28;1994;-40
2022/10/21 12:47:32;;;;;;;;;;;;;;;;;;5113789;28;1605;-49
2022/10/21 12:50:02;;;;;;;;;;;;;;;;;;5113893;28;1973;-40
2022/10/21 12:52:30;;;;;;;;;;;;;;;;;;5113876;28;1939;-40
2022/10/21 12:54:58;;;;;;;;;;;;;;;;;;5113731;28;2159;-41
2022/10/21 12:57:26;;;;;;;;;;;;;;;;;;5113815;28;1987;-45
2022/10/21 13:00:31;;;;;;;;;;;;;;;;;;5113555;27;2132;-40
2022/10/21 13:03:14;;;;;;;;;;;;;;;;;;5113138;28;1926;-45
2022/10/21 13:05:41;;;;;;;;;;;;;;;;;;5113203;28;1825;-50
2022/10/21 13:08:23;;;;;;;;;;;;;;;;;;5112632;28;1755;-40
2022/10/21 13:11:05;;;;;;;;;;;;;;;;;;5113624;28;1912;-47
2022/10/21 13:13:34;;;;;;;;;;;;;;;;;;5113467;28;1980;-52
2022/10/21 13:16:21;;;;;;;;;;;;;;;;;;5113353;28;1854;-41
2022/10/21 13:18:58;;;;;;;;;;;;;;;;;;5109564;28;1767;-52
2022/10/21 13:21:27;;;;;;;;;;;;;;;;;;5113333;28;2284;-49
2022/10/21 13:23:57;;;;;;;;;;;;;;;;;;5113420;28;2030;-41
2022/10/21 13:26:25;;;;;;;;;;;;;;;;;;5113285;28;1983;-49
2022/10/21 13:29:04;;;;;;;;;;;;;;;;;;5113202;28;1974;-40
2022/10/21 13:31:31;;;;;;;;;;;;;;;;;;5112955;28;2141;-53
2022/10/21 13:33:58;;;;;;;;;;;;;;;;;;5100747;28;1981;-41
2022/10/21 13:36:33;;;;;;;;;;;;;;;;;;5092661;28;1616;-41
2022/10/21 13:39:04;;;;;;;;;;;;;;;;;;5092432;28;1806;-40
2022/10/21 13:41:31;;;;;;;;;;;;;;;;;;5092245;28;1899;-40
2022/10/21 13:44:03;;;;;;;;;;;;;;;;;;5092475;28;1832;-49
2022/10/21 13:46:31;;;;;;;;;;;;;;;;;;5092482;28;1763;-46
2022/10/21 13:48:59;;;;;;;;;;;;;;;;;;5092320;28;1911;-42
2022/10/21 13:51:28;;;;;;;;;;;;;;;;;;5091340;28;1868;-45
2022/10/21 13:53:56;;;;;;;;;;;;;;;;;;5092315;28;1630;-43
2022/10/21 13:56:31;;;;;;;;;;;;;;;;;;5092054;28;1975;-41
2022/10/21 13:58:59;;;;;;;;;;;;;;;;;;5092241;28;1890;-47
2022/10/21 14:01:27;;;;;;;;;;;;;;;;;;5092125;28;1907;-45
2022/10/21 14:04:24;;;;;;;;;;;;;;;;;;5092176;28;2031;-44
2022/10/21 14:06:52;;;;;;;;;;;;;;;;;;5086729;28;1824;-43
2022/10/21 14:09:26;;;;;;;;;;;;;;;;;;5092082;28;2248;-53
2022/10/21 14:12:04;;;;;;;;;;;;;;;;;;5092050;28;2122;-55
2022/10/21 14:14:32;;;;;;;;;;;;;;;;;;5091931;28;1817;-42
2022/10/21 14:17:06;;;;;;;;;;;;;;;;;;5091782;28;2191;-47
2022/10/21 14:19:36;;;;;;;;;;;;;;;;;;5091717;28;1631;-51
2022/10/21 14:22:05;;;;;;;;;;;;;;;;;;5091921;28;1971;-51
2022/10/21 14:24:39;;;;;;;;;;;;;;;;;;5091651;28;1770;-50
2022/10/21 14:27:09;;;;;;;;;;;;;;;;;;5091614;28;2315;-47
2022/10/21 14:29:37;;;;;;;;;;;;;;;;;;5091590;28;1970;-51
2022/10/21 14:32:04;;;;;;;;;;;;;;;;;;5091737;28;2095;-43
2022/10/21 14:34:32;;;;;;;;;;;;;;;;;;5091648;28;2071;-53
2022/10/21 14:37:08;;;;;;;;;;;;;;;;;;5091641;28;1489;-49
2022/10/21 14:39:38;;;;;;;;;;;;;;;;;;5091356;28;1917;-49
2022/10/21 14:42:11;;;;;;;;;;;;;;;;;;5091310;28;1531;-54
2022/10/21 14:44:40;;;;;;;;;;;;;;;;;;5091287;28;2172;-50
2022/10/21 14:47:15;;;;;;;;;;;;;;;;;;5091505;28;1950;-49
2022/10/21 14:49:46;;;;;;;;;;;;;;;;;;5091375;28;1906;-52
2022/10/21 14:52:20;;;;;;;;;;;;;;;;;;5091509;28;1639;-47
2022/10/21 14:54:58;;;;;;;;;;;;;;;;;;5091319;28;1978;-45
2022/10/21 14:57:44;;;;;;;;;;;;;;;;;;5091241;28;1694;-46
2022/10/21 15:00:32;;;;;;;;;;;;;;;;;;5089955;28;2130;-49
2022/10/21 15:03:00;;;;;;;;;;;;;;;;;;5089800;28;2047;-53
2022/10/21 15:05:40;;;;;;;;;;;;;;;;;;5091267;28;1730;-50
2022/10/21 15:08:18;;;;;;;;;;;;;;;;;;5091191;28;1938;-53
2022/10/21 15:11:04;;;;;;;;;;;;;;;;;;5090783;28;1989;-48
2022/10/21 15:13:31;;;;;;;;;;;;;;;;;;5089735;28;1979;-47
2022/10/21 15:15:59;;;;;;;;;;;;;;;;;;5091234;28;1444;-41
2022/10/21 15:18:31;;;;;;;;;;;;;;;;;;5091354;28;2126;-47
2022/10/21 15:21:01;;;;;;;;;;;;;;;;;;5091229;28;2079;-41
2022/10/21 15:23:36;;;;;;;;;;;;;;;;;;5091187;28;1580;-50
2022/10/21 15:26:23;;;;;;;;;;;;;;;;;;5091204;28;2015;-49
2022/10/21 15:28:52;;;;;;;;;;;;;;;;;;5090961;28;1797;-47
2022/10/21 15:31:21;;;;;;;;;;;;;;;;;;5094251;28;2041;-48
2022/10/21 15:33:50;;;;;;;;;;;;;;;;;;5094725;28;1985;-45
2022/10/21 15:36:19;;;;;;;;;;;;;;;;;;5095279;28;1902;-49
2022/10/21 15:38:47;;;;;;;;;;;;;;;;;;5094768;28;1545;-51
2022/10/21 15:41:20;;;;;;;;;;;;;;;;;;5094839;28;1925;-50
2022/10/21 15:44:03;;;;;;;;;;;;;;;;;;5094804;28;1845;-48
2022/10/21 15:46:32;;;;;;;;;;;;;;;;;;5094704;28;2148;-44
2022/10/21 15:49:05;;;;;;;;;;;;;;;;;;5094813;28;2344;-50
2022/10/21 15:51:33;;;;;;;;;;;;;;;;;;5094377;28;1948;-46
2022/10/21 15:54:00;;;;;;;;;;;;;;;;;;5094730;28;1577;-51
2022/10/21 15:56:28;;;;;;;;;;;;;;;;;;5094657;28;1992;-50
2022/10/21 15:58:55;;;;;;;;;;;;;;;;;;5094539;28;1911;-44
2022/10/21 16:01:22;;;;;;;;;;;;;;;;;;5094417;28;1912;-46
2022/10/21 16:03:49;;;;;;;;;;;;;;;;;;5094223;28;2037;-47
2022/10/21 16:06:18;;;;;;;;;;;;;;;;;;5094378;28;1244;-48
2022/10/21 16:08:46;;;;;;;;;;;;;;;;;;5094409;28;2267;-51
2022/10/21 16:11:15;;;;;;;;;;;;;;;;;;5094337;28;1965;-49
2022/10/21 16:13:48;;;;;;;;;;;;;;;;;;5114427;28;2014;-50
2022/10/21 16:16:18;;;;;;;;;;;;;;;;;;5114893;28;2145;-43
2022/10/21 16:18:46;;;;;;;;;;;;;;;;;;5114481;28;1605;-51
2022/10/21 16:21:14;;;;;;;;;;;;;;;;;;5114085;28;2205;-48
2022/10/21 16:23:45;;;;;;;;;;;;;;;;;;5114493;27;2098;-51
2022/10/21 16:26:19;;;;;;;;;;;;;;;;;;5113768;27;2357;-47
2022/10/21 16:28:46;;;;;;;;;;;;;;;;;;5114426;28;1232;-46
2022/10/21 16:31:13;;;;;;;;;;;;;;;;;;5114260;27;2175;-41
2022/10/21 16:33:44;;;;;;;;;;;;;;;;;;5103949;27;2064;-45
2022/10/21 16:36:11;;;;;;;;;;;;;;;;;;5093841;28;1836;-47
2022/10/21 16:38:38;;;;;;;;;;;;;;;;;;5094054;28;1968;-46
2022/10/21 16:41:09;;;;;;;;;;;;;;;;;;5093462;28;1506;-48
2022/10/21 16:43:39;;;;;;;;;;;;;;;;;;5093825;28;1823;-45
2022/10/21 16:46:30;;;;;;;;;;;;;;;;;;5093433;28;1597;-45
2022/10/21 16:49:08;;;;;;;;;;;;;;;;;;5091192;28;1659;-51
2022/10/21 16:51:38;;;;;;;;;;;;;;;;;;5093366;28;2049;-45
2022/10/21 16:54:05;;;;;;;;;;;;;;;;;;5093435;28;1817;-41
2022/10/21 16:56:34;;;;;;;;;;;;;;;;;;5093494;28;1352;-51
2022/10/21 16:59:04;;;;;;;;;;;;;;;;;;5093451;28;1653;-46
2022/10/21 17:01:34;;;;;;;;;;;;;;;;;;5093491;28;1835;-46
2022/10/21 17:04:01;;;;;;;;;;;;;;;;;;5091940;28;1862;-46
2022/10/21 17:06:30;;;;;;;;;;;;;;;;;;5093305;28;1854;-46
2022/10/21 17:08:57;;;;;;;;;;;;;;;;;;5093206;28;1414;-46
2022/10/21 17:11:32;;;;;;;;;;;;;;;;;;5092909;28;1913;-49
2022/10/21 17:13:59;;;;;;;;;;;;;;;;;;5092930;28;1524;-48
2022/10/21 17:16:27;;;;;;;;;;;;;;;;;;5092818;28;1815;-49
2022/10/21 17:18:54;;;;;;;;;;;;;;;;;;5093196;28;2030;-45
2022/10/21 17:21:26;;;;;;;;;;;;;;;;;;5092712;28;1254;-44
2022/10/21 17:23:54;;;;;;;;;;;;;;;;;;5092802;28;1960;-48
2022/10/21 17:26:22;;;;;;;;;;;;;;;;;;5092638;28;2018;-53
2022/10/21 17:28:49;;;;;;;;;;;;;;;;;;5091470;28;2034;-46